Bookmark and Share
Track history (hours):
 

Lehmann Sound

Last reported at 2014-Apr-20 21:13 UTC. Time now 2014-Apr-20 23:54 UTC.
Position N 53°27' W 003°01'.

; draft 5.8 m.

Type: Cargo ship. MMSI: 305476000.

NotesDate/timePositionNaut miles runAvg speedWind from/ knotsBaromVisibWave heightAir tempDewpointWater temp
2014-Apr-20 21:13N 53°27' W 003°01'0 0.0
2014-Apr-18 23:11N 53°27' W 003°01'1 0.2
2014-Apr-18 14:30N 53°28' W 003°03'8 8.2
2014-Apr-18 13:29N 53°31' W 003°16'7 7.2
2014-Apr-18 12:33N 53°31' W 003°27'8 7.2
2014-Apr-18 11:31N 53°31' W 003°39'  
2014-Apr-15 19:12N 43°47' W 001°45'710.6
2014-Apr-15 18:33N 43°41' W 001°40'1010.3
2014-Apr-15 17:33N 43°32' W 001°33'3 2.7
2014-Apr-15 16:33N 43°30' W 001°29'0 0.0
2014-Apr-15 15:33N 43°30' W 001°29'0 0.0
2014-Apr-15 14:30N 43°30' W 001°29'0 0.0
2014-Apr-15 12:33N 43°30' W 001°29'0 0.0
2014-Apr-15 11:33N 43°30' W 001°29'0 0.0
2014-Apr-15 10:33N 43°30' W 001°29'0 0.0
2014-Apr-15 09:33N 43°30' W 001°29'0 0.0
2014-Apr-15 08:33N 43°30' W 001°29'0 0.0
2014-Apr-15 07:33N 43°30' W 001°29'0 0.0
2014-Apr-15 06:33N 43°30' W 001°29'0 0.0
2014-Apr-15 05:33N 43°30' W 001°29'0 0.0
2014-Apr-15 03:33N 43°30' W 001°29'0 0.0
2014-Apr-15 02:33N 43°30' W 001°29'0 0.0
2014-Apr-15 01:33N 43°30' W 001°29'0 0.0
2014-Apr-15 00:33N 43°30' W 001°29'0 0.0
2014-Apr-14 23:33N 43°30' W 001°29'0 0.0
2014-Apr-14 22:33N 43°30' W 001°29'0 0.0
2014-Apr-14 21:33N 43°30' W 001°29'0 0.0
2014-Apr-14 20:33N 43°30' W 001°29'0 0.0
2014-Apr-14 19:33N 43°30' W 001°29'0 0.0
2014-Apr-14 18:33N 43°30' W 001°29'0 0.0
2014-Apr-14 17:32N 43°30' W 001°29'0 0.0
2014-Apr-14 16:32N 43°30' W 001°29'0 0.0
2014-Apr-14 15:32N 43°30' W 001°29'0 0.0
2014-Apr-14 14:32N 43°30' W 001°29'0 0.0
2014-Apr-14 13:32N 43°30' W 001°29'0 0.0
2014-Apr-14 11:32N 43°30' W 001°29'0 0.0
2014-Apr-14 10:32N 43°30' W 001°29'0 0.0
2014-Apr-14 09:32N 43°30' W 001°29'0 0.0
2014-Apr-14 08:32N 43°30' W 001°29'0 0.0
2014-Apr-14 07:32N 43°30' W 001°29'0 0.0
2014-Apr-14 06:32N 43°30' W 001°29'0 0.0
2014-Apr-14 05:32N 43°30' W 001°29'0 0.0
2014-Apr-13 22:32N 43°30' W 001°29'0 0.0
2014-Apr-13 21:32N 43°30' W 001°29'0 0.0
2014-Apr-13 20:32N 43°30' W 001°29'0 0.0
2014-Apr-13 19:32N 43°30' W 001°29'0 0.0
2014-Apr-13 18:32N 43°30' W 001°29'0 0.0
2014-Apr-13 17:32N 43°30' W 001°29'0 0.0
2014-Apr-13 16:29N 43°30' W 001°29'0 0.0
2014-Apr-13 15:31N 43°30' W 001°29'0 0.0
2014-Apr-13 14:31N 43°30' W 001°29'0 0.0
2014-Apr-13 13:31N 43°30' W 001°29'0 0.0
2014-Apr-13 12:31N 43°30' W 001°29'0 0.0
2014-Apr-13 11:31N 43°30' W 001°29'0 0.0
2014-Apr-13 10:31N 43°30' W 001°29'0 0.0
2014-Apr-13 09:22N 43°30' W 001°29'0 0.0
2014-Apr-13 08:31N 43°30' W 001°29'0 0.0
2014-Apr-13 07:31N 43°31' W 001°29'0 0.0
2014-Apr-13 06:31N 43°30' W 001°29'0 0.0
2014-Apr-13 05:31N 43°30' W 001°29'0 0.0
2014-Apr-13 04:31N 43°30' W 001°29'0 0.0
2014-Apr-13 03:31N 43°30' W 001°29'0 0.0
2014-Apr-13 02:31N 43°30' W 001°29'0 0.0
2014-Apr-13 01:31N 43°30' W 001°29'0 0.0
2014-Apr-13 00:31N 43°30' W 001°29'0 0.0
2014-Apr-12 23:31N 43°30' W 001°29'0 0.0
2014-Apr-12 22:31N 43°30' W 001°29'0 0.0
2014-Apr-12 21:31N 43°30' W 001°29'0 0.0
2014-Apr-12 20:31N 43°30' W 001°29'0 0.0
2014-Apr-12 19:31N 43°30' W 001°29'0 0.0
2014-Apr-12 18:31N 43°30' W 001°29'0 0.0
2014-Apr-12 17:31N 43°30' W 001°29'0 0.0
2014-Apr-12 16:31N 43°30' W 001°29'0 0.0
2014-Apr-12 15:31N 43°30' W 001°29'0 0.0
2014-Apr-12 14:31N 43°30' W 001°29'0 0.0
2014-Apr-12 13:31N 43°30' W 001°29'0 0.0
2014-Apr-12 12:31N 43°30' W 001°29'0 0.0
2014-Apr-12 11:31N 43°30' W 001°29'0 0.0
2014-Apr-12 10:28N 43°30' W 001°29'0 0.0
2014-Apr-12 09:31N 43°30' W 001°29'0 0.2
2014-Apr-12 08:33N 43°31' W 001°30'4 4.3
2014-Apr-12 07:33N 43°34' W 001°34'0 0.1
2014-Apr-12 06:25N 43°34' W 001°34'0 0.0
2014-Apr-12 05:25N 43°34' W 001°34'0 0.0
2014-Apr-12 04:28N 43°34' W 001°34'0 0.0
2014-Apr-12 03:31N 43°34' W 001°34'0 0.0
2014-Apr-12 02:31N 43°34' W 001°34'0 0.0
2014-Apr-12 01:31N 43°34' W 001°34'0 0.0
2014-Apr-12 00:31N 43°34' W 001°34'0 0.0
2014-Apr-11 23:31N 43°34' W 001°34'0 0.0
2014-Apr-11 22:16N 43°34' W 001°34'0 0.0
2014-Apr-11 21:31N 43°34' W 001°34'0 0.0
2014-Apr-11 20:31N 43°34' W 001°34'0 0.0
2014-Apr-11 19:31N 43°34' W 001°34'0 0.0
2014-Apr-11 18:31N 43°34' W 001°34'0 0.0
2014-Apr-11 17:31N 43°34' W 001°34'0 0.0
2014-Apr-11 16:28N 43°34' W 001°34'0 0.0
2014-Apr-11 15:28N 43°34' W 001°34'0 0.0
2014-Apr-11 14:31N 43°34' W 001°34'0 0.0
2014-Apr-11 13:31N 43°34' W 001°34'0 0.0
2014-Apr-11 12:31N 43°34' W 001°34'0 0.0
2014-Apr-11 10:22N 43°34' W 001°34'0 0.0
2014-Apr-11 09:31N 43°34' W 001°34'0 0.0
2014-Apr-11 08:33N 43°34' W 001°34'0 0.0
2014-Apr-11 07:33N 43°34' W 001°34'0 0.3
2014-Apr-11 06:34N 43°33' W 001°34'  

Dump ship's entire track history

sailing weather and tide predictions

Lehmann Sound — V2EM3 — position and weather